createdAt,value
2023-04-14T00:00:36.893Z,507.00
2023-04-14T00:01:36.856Z,506.00
2023-04-14T00:02:37.176Z,504.00
2023-04-14T00:03:37.270Z,506.00
2023-04-14T00:04:37.265Z,505.00
2023-04-14T00:05:37.191Z,506.00
2023-04-14T00:06:37.273Z,505.00
2023-04-14T00:07:37.357Z,504.00
2023-04-14T00:08:37.458Z,504.00
2023-04-14T00:09:37.518Z,503.00
2023-04-14T00:10:37.598Z,503.00
2023-04-14T00:11:37.684Z,502.00
2023-04-14T00:12:37.766Z,505.00
2023-04-14T00:13:37.853Z,501.00
2023-04-14T00:14:37.914Z,504.00
2023-04-14T00:15:38.018Z,503.00
2023-04-14T00:16:38.103Z,505.00
2023-04-14T00:17:38.218Z,507.00
2023-04-14T00:18:38.261Z,506.00
2023-04-14T00:19:38.357Z,505.00
2023-04-14T00:20:38.429Z,502.00
2023-04-14T00:21:38.482Z,507.00
2023-04-14T00:22:38.562Z,503.00
2023-04-14T00:23:38.626Z,504.00
2023-04-14T00:24:38.715Z,503.00
2023-04-14T00:25:38.807Z,502.00
2023-04-14T00:26:38.910Z,506.00
2023-04-14T00:27:38.966Z,505.00
2023-04-14T00:28:39.053Z,502.00
2023-04-14T00:29:40.120Z,507.00
2023-04-14T00:30:39.183Z,505.00
2023-04-14T00:31:39.356Z,505.00
2023-04-14T00:32:39.352Z,503.00
2023-04-14T00:33:39.388Z,503.00
2023-04-14T00:34:39.446Z,504.00
2023-04-14T00:35:39.553Z,505.00
2023-04-14T00:36:39.629Z,504.00
2023-04-14T00:37:39.706Z,500.00
2023-04-14T00:38:39.784Z,501.00
2023-04-14T00:39:39.859Z,502.00
2023-04-14T00:40:39.952Z,503.00
2023-04-14T00:41:40.022Z,502.00
2023-04-14T00:42:40.090Z,503.00
2023-04-14T00:43:40.165Z,503.00
2023-04-14T00:44:40.240Z,502.00
2023-04-14T00:45:40.299Z,502.00
2023-04-14T00:46:40.427Z,500.00
2023-04-14T00:47:40.499Z,502.00
2023-04-14T00:48:40.526Z,502.00
2023-04-14T00:49:40.716Z,503.00
2023-04-14T00:50:40.740Z,502.00
2023-04-14T00:51:40.810Z,503.00
2023-04-14T00:52:40.799Z,501.00
2023-04-14T00:53:40.875Z,504.00
2023-04-14T00:54:40.945Z,500.00
2023-04-14T00:55:41.010Z,501.00
2023-04-14T00:56:41.073Z,503.00
2023-04-14T00:57:41.120Z,505.00
2023-04-14T00:58:41.215Z,501.00
2023-04-14T00:59:41.286Z,504.00
2023-04-14T01:00:41.394Z,503.00
2023-04-14T01:01:41.512Z,503.00
2023-04-14T01:02:41.933Z,502.00
2023-04-14T01:03:41.673Z,505.00
2023-04-14T01:04:53.040Z,503.00
2023-04-14T01:05:42.589Z,503.00
2023-04-14T01:06:41.646Z,503.00
2023-04-14T01:07:41.643Z,503.00
2023-04-14T01:08:41.648Z,502.00
2023-04-14T01:09:41.674Z,502.00
2023-04-14T01:10:41.688Z,502.00
2023-04-14T01:11:41.696Z,503.00
2023-04-14T01:12:41.722Z,501.00
2023-04-14T01:13:41.758Z,501.00
2023-04-14T01:14:41.833Z,500.00
2023-04-14T01:15:41.937Z,504.00
2023-04-14T01:16:42.032Z,502.00
2023-04-14T01:17:42.114Z,501.00
2023-04-14T01:18:42.164Z,500.00
2023-04-14T01:19:42.215Z,501.00
2023-04-14T01:20:42.357Z,500.00
2023-04-14T01:21:42.392Z,503.00
2023-04-14T01:22:42.475Z,502.00
2023-04-14T01:23:42.497Z,503.00
2023-04-14T01:24:42.631Z,504.00
2023-04-14T01:25:42.703Z,501.00
2023-04-14T01:26:42.801Z,503.00
2023-04-14T01:27:42.838Z,506.00
2023-04-14T01:28:42.903Z,504.00
2023-04-14T01:29:42.974Z,502.00
2023-04-14T01:30:43.032Z,502.00
2023-04-14T01:31:43.160Z,500.00
2023-04-14T01:32:43.209Z,501.00
2023-04-14T01:33:43.144Z,504.00
2023-04-14T01:34:43.240Z,505.00
2023-04-14T01:35:43.203Z,506.00
2023-04-14T01:36:43.257Z,503.00
2023-04-14T01:37:43.288Z,503.00
2023-04-14T01:38:43.308Z,504.00
2023-04-14T01:39:43.369Z,502.00
2023-04-14T01:40:43.403Z,504.00
2023-04-14T01:41:43.434Z,502.00
2023-04-14T01:42:43.515Z,503.00
2023-04-14T01:43:43.586Z,502.00
2023-04-14T01:44:43.656Z,502.00
2023-04-14T01:45:43.698Z,503.00
2023-04-14T01:46:43.723Z,502.00
2023-04-14T01:47:43.844Z,506.00
2023-04-14T01:48:43.820Z,501.00
2023-04-14T01:49:43.851Z,503.00
2023-04-14T01:50:43.925Z,501.00
2023-04-14T01:51:43.950Z,503.00
2023-04-14T01:52:43.992Z,501.00
2023-04-14T01:53:44.001Z,504.00
2023-04-14T01:54:44.068Z,502.00
2023-04-14T01:55:44.125Z,501.00
2023-04-14T01:56:44.169Z,501.00
2023-04-14T01:57:44.279Z,500.00
2023-04-14T01:58:44.274Z,503.00
2023-04-14T01:59:44.342Z,506.00
2023-04-14T02:00:44.439Z,504.00
2023-04-14T02:01:44.528Z,504.00
2023-04-14T02:02:44.710Z,503.00
2023-04-14T02:03:44.706Z,505.00
2023-04-14T02:04:44.661Z,503.00
2023-04-14T02:05:44.753Z,502.00
2023-04-14T02:06:44.813Z,501.00
2023-04-14T02:07:44.812Z,502.00
2023-04-14T02:08:44.906Z,502.00
2023-04-14T02:09:44.956Z,502.00
2023-04-14T02:10:45.028Z,500.00
2023-04-14T02:11:45.105Z,501.00
2023-04-14T02:12:45.167Z,504.00
2023-04-14T02:13:45.188Z,500.00
2023-04-14T02:14:45.236Z,504.00
2023-04-14T02:15:45.296Z,501.00
2023-04-14T02:16:45.404Z,501.00
2023-04-14T02:17:45.452Z,500.00
2023-04-14T02:18:45.424Z,502.00
2023-04-14T02:19:45.492Z,501.00
2023-04-14T02:20:45.530Z,501.00
2023-04-14T02:21:45.575Z,502.00
2023-04-14T02:22:45.609Z,503.00
2023-04-14T02:23:45.654Z,500.00
2023-04-14T02:24:45.705Z,502.00
2023-04-14T02:25:45.798Z,501.00
2023-04-14T02:26:45.814Z,503.00
2023-04-14T02:27:45.881Z,503.00
2023-04-14T02:28:45.855Z,501.00
2023-04-14T02:29:45.917Z,502.00
2023-04-14T02:30:45.947Z,502.00
2023-04-14T02:31:45.959Z,504.00
2023-04-14T02:32:46.083Z,504.00
2023-04-14T02:33:46.059Z,501.00
2023-04-14T02:34:46.091Z,502.00
2023-04-14T02:35:46.152Z,501.00
2023-04-14T02:36:46.150Z,501.00
2023-04-14T02:37:46.216Z,502.00
2023-04-14T02:38:46.217Z,501.00
2023-04-14T02:39:46.260Z,503.00
2023-04-14T02:40:46.270Z,502.00
2023-04-14T02:41:46.290Z,500.00
2023-04-14T02:42:46.319Z,502.00
2023-04-14T02:43:46.363Z,500.00
2023-04-14T02:44:46.410Z,501.00
2023-04-14T02:45:46.489Z,501.00
2023-04-14T02:46:46.489Z,500.00
2023-04-14T02:47:46.558Z,501.00
2023-04-14T02:48:46.593Z,502.00
2023-04-14T02:49:46.611Z,500.00
2023-04-14T02:50:46.610Z,502.00
2023-04-14T02:51:46.626Z,501.00
2023-04-14T02:52:46.673Z,503.00
2023-04-14T02:53:46.728Z,501.00
2023-04-14T02:54:46.774Z,502.00
2023-04-14T02:55:46.802Z,500.00
2023-04-14T02:56:46.910Z,501.00
2023-04-14T02:57:46.839Z,500.00
2023-04-14T02:58:46.842Z,502.00
2023-04-14T02:59:46.850Z,502.00
2023-04-14T03:00:46.887Z,502.00
2023-04-14T03:01:47.050Z,501.00
2023-04-14T03:02:47.123Z,502.00
2023-04-14T03:03:47.005Z,503.00
2023-04-14T03:04:46.984Z,502.00
2023-04-14T03:05:47.026Z,503.00
2023-04-14T03:06:47.040Z,504.00
2023-04-14T03:07:47.097Z,502.00
2023-04-14T03:08:47.131Z,501.00
2023-04-14T03:09:47.172Z,503.00
2023-04-14T03:10:47.210Z,501.00
2023-04-14T03:11:48.150Z,501.00
2023-04-14T03:12:47.348Z,501.00
2023-04-14T03:13:47.405Z,503.00
2023-04-14T03:14:47.430Z,501.00
2023-04-14T03:15:47.530Z,501.00
2023-04-14T03:16:47.544Z,500.00
2023-04-14T03:17:47.614Z,501.00
2023-04-14T03:18:47.630Z,500.00
2023-04-14T03:19:47.655Z,503.00
2023-04-14T03:20:47.695Z,500.00
2023-04-14T03:21:47.712Z,502.00
2023-04-14T03:22:47.704Z,502.00
2023-04-14T03:23:47.737Z,501.00
2023-04-14T03:24:47.740Z,501.00
2023-04-14T03:25:47.769Z,504.00
2023-04-14T03:26:47.744Z,502.00
2023-04-14T03:27:47.765Z,502.00
2023-04-14T03:28:47.805Z,500.00
2023-04-14T03:29:47.831Z,502.00
2023-04-14T03:30:47.793Z,500.00
2023-04-14T03:31:47.964Z,503.00
2023-04-14T03:32:47.910Z,503.00
2023-04-14T03:33:47.859Z,503.00
2023-04-14T03:34:47.906Z,501.00
2023-04-14T03:35:47.950Z,501.00
2023-04-14T03:36:47.924Z,503.00
2023-04-14T03:37:47.915Z,503.00
2023-04-14T03:38:47.927Z,504.00
2023-04-14T03:39:47.968Z,501.00
2023-04-14T03:40:48.001Z,503.00
2023-04-14T03:41:48.136Z,501.00
2023-04-14T03:42:48.008Z,505.00
2023-04-14T03:43:48.030Z,500.00
2023-04-14T03:44:48.044Z,502.00
2023-04-14T03:45:48.044Z,502.00
2023-04-14T03:46:48.107Z,504.00
2023-04-14T03:47:48.118Z,501.00
2023-04-14T03:48:48.128Z,502.00
2023-04-14T03:49:48.134Z,503.00
2023-04-14T03:50:48.135Z,502.00
2023-04-14T03:51:48.160Z,503.00
2023-04-14T03:52:48.184Z,501.00
2023-04-14T03:53:48.188Z,502.00
2023-04-14T03:54:48.183Z,500.00
2023-04-14T03:55:48.232Z,500.00
2023-04-14T03:56:48.229Z,502.00
2023-04-14T03:57:48.230Z,500.00
2023-04-14T03:58:48.237Z,502.00
2023-04-14T03:59:48.288Z,500.00
2023-04-14T04:00:48.279Z,500.00
2023-04-14T04:01:48.355Z,501.00
2023-04-14T04:02:48.473Z,503.00
2023-04-14T04:03:48.550Z,501.00
2023-04-14T04:04:48.375Z,501.00
2023-04-14T04:05:48.410Z,502.00
2023-04-14T04:06:48.371Z,502.00
2023-04-14T04:07:48.407Z,502.00
2023-04-14T04:08:48.427Z,500.00
2023-04-14T04:09:48.450Z,501.00
2023-04-14T04:10:48.461Z,501.00
2023-04-14T04:11:48.464Z,502.00
2023-04-14T04:12:48.515Z,501.00
2023-04-14T04:13:48.520Z,501.00
2023-04-14T04:14:48.512Z,502.00
2023-04-14T04:15:48.511Z,501.00
2023-04-14T04:16:48.583Z,500.00
2023-04-14T04:17:48.577Z,501.00
2023-04-14T04:18:48.567Z,501.00
2023-04-14T04:19:48.613Z,502.00
2023-04-14T04:20:48.597Z,501.00
2023-04-14T04:21:48.621Z,502.00
2023-04-14T04:22:48.639Z,500.00
2023-04-14T04:23:48.651Z,503.00
2023-04-14T04:24:48.663Z,504.00
2023-04-14T04:25:48.687Z,501.00
2023-04-14T04:26:48.671Z,501.00
2023-04-14T04:27:48.703Z,500.00
2023-04-14T04:28:48.713Z,501.00
2023-04-14T04:29:48.716Z,501.00
2023-04-14T04:30:48.740Z,501.00
2023-04-14T04:31:48.815Z,502.00
2023-04-14T04:32:48.808Z,501.00
2023-04-14T04:33:48.822Z,502.00
2023-04-14T04:34:48.790Z,501.00
2023-04-14T04:35:48.806Z,501.00
2023-04-14T04:36:48.857Z,503.00
2023-04-14T04:37:48.874Z,502.00
2023-04-14T04:38:48.900Z,502.00
2023-04-14T04:39:48.910Z,504.00
2023-04-14T04:40:48.939Z,503.00
2023-04-14T04:41:48.949Z,501.00
2023-04-14T04:42:48.965Z,502.00
2023-04-14T04:43:49.031Z,503.00
2023-04-14T04:44:49.054Z,502.00
2023-04-14T04:45:49.118Z,501.00
2023-04-14T04:46:49.084Z,502.00
2023-04-14T04:47:49.103Z,502.00
2023-04-14T04:48:49.115Z,501.00
2023-04-14T04:49:49.124Z,501.00
2023-04-14T04:50:49.191Z,501.00
2023-04-14T04:51:49.165Z,501.00
2023-04-14T04:52:50.215Z,501.00
2023-04-14T04:53:49.285Z,501.00
2023-04-14T04:54:49.256Z,502.00
2023-04-14T04:55:49.288Z,503.00
2023-04-14T04:56:49.313Z,502.00
2023-04-14T04:57:49.317Z,502.00
2023-04-14T04:58:49.335Z,503.00
2023-04-14T04:59:49.377Z,500.00
2023-04-14T05:00:49.387Z,501.00
2023-04-14T05:01:49.575Z,502.00
2023-04-14T05:02:49.605Z,504.00
2023-04-14T05:03:49.476Z,507.00
2023-04-14T05:04:49.608Z,503.00
2023-04-14T05:05:49.550Z,507.00
2023-04-14T05:06:49.573Z,506.00
2023-04-14T05:07:49.581Z,503.00
2023-04-14T05:08:49.589Z,502.00
2023-04-14T05:09:49.617Z,501.00
2023-04-14T05:10:49.672Z,501.00
2023-04-14T05:11:49.667Z,504.00
2023-04-14T05:12:49.710Z,502.00
2023-04-14T05:13:49.726Z,502.00
2023-04-14T05:14:49.739Z,501.00
2023-04-14T05:15:49.826Z,501.00
2023-04-14T05:16:49.816Z,502.00
2023-04-14T05:17:49.865Z,501.00
2023-04-14T05:18:49.833Z,500.00
2023-04-14T05:19:49.866Z,502.00
2023-04-14T05:20:49.878Z,501.00
2023-04-14T05:21:49.908Z,502.00
2023-04-14T05:22:49.925Z,500.00
2023-04-14T05:23:49.977Z,502.00
2023-04-14T05:24:50.007Z,502.00
2023-04-14T05:25:49.995Z,502.00
2023-04-14T05:27:01.568Z,501.00
2023-04-14T05:27:51.010Z,502.00
2023-04-14T05:28:50.029Z,502.00
2023-04-14T05:29:50.021Z,503.00
2023-04-14T05:30:50.091Z,503.00
2023-04-14T05:31:50.020Z,504.00
2023-04-14T05:32:50.052Z,503.00
2023-04-14T05:33:49.995Z,502.00
2023-04-14T05:34:50.016Z,504.00
2023-04-14T05:35:50.231Z,505.00
2023-04-14T05:36:50.003Z,510.00
2023-04-14T05:37:50.001Z,518.00
2023-04-14T05:38:50.024Z,520.00
2023-04-14T05:39:50.051Z,545.00
2023-04-14T05:40:50.055Z,543.00
2023-04-14T05:41:50.030Z,563.00
2023-04-14T05:42:50.043Z,549.00
2023-04-14T05:43:50.127Z,570.00
2023-04-14T05:44:50.068Z,612.00
2023-04-14T05:45:50.050Z,616.00
2023-04-14T05:46:50.152Z,634.00
2023-04-14T05:47:50.144Z,658.00
2023-04-14T05:48:50.081Z,660.00
2023-04-14T05:49:50.094Z,704.00
2023-04-14T05:50:50.249Z,799.00
2023-04-14T05:51:50.106Z,805.00
2023-04-14T05:52:50.115Z,833.00
2023-04-14T05:53:50.119Z,862.00
2023-04-14T05:54:50.084Z,947.00
2023-04-14T05:55:50.276Z,1021.00
2023-04-14T05:56:50.118Z,1041.00
2023-04-14T05:57:50.170Z,1078.00
2023-04-14T05:58:50.242Z,1105.00
2023-04-14T05:59:50.299Z,1135.00
2023-04-14T06:00:50.339Z,1150.00
2023-04-14T06:01:50.508Z,1212.00
2023-04-14T06:02:50.711Z,1247.00
2023-04-14T06:03:50.770Z,1263.00
2023-04-14T06:04:50.641Z,1314.00
2023-04-14T06:05:50.654Z,1312.00
2023-04-14T06:06:50.693Z,1335.00
2023-04-14T06:07:50.709Z,1393.00
2023-04-14T06:08:50.782Z,1436.00
2023-04-14T06:09:50.809Z,1438.00
2023-04-14T06:10:50.853Z,1462.00
2023-04-14T06:11:50.934Z,1459.00
2023-04-14T06:12:50.961Z,1485.00
2023-04-14T06:13:51.023Z,1523.00
2023-04-14T06:14:51.027Z,1574.00
2023-04-14T06:15:51.089Z,1598.00
2023-04-14T06:16:51.327Z,1610.00
2023-04-14T06:17:51.226Z,1610.00
2023-04-14T06:18:51.159Z,1634.00
2023-04-14T06:19:51.208Z,1672.00
2023-04-14T06:20:51.220Z,1697.00
2023-04-14T06:21:51.247Z,1712.00
2023-04-14T06:22:51.275Z,1729.00
2023-04-14T06:23:51.300Z,1755.00
2023-04-14T06:24:51.300Z,1791.00
2023-04-14T06:25:51.322Z,1830.00
2023-04-14T06:26:51.373Z,1846.00
2023-04-14T06:27:51.397Z,1854.00
2023-04-14T06:28:51.413Z,1864.00
2023-04-14T06:29:51.419Z,1871.00
2023-04-14T06:30:51.447Z,1884.00
2023-04-14T06:31:51.516Z,1915.00
2023-04-14T06:32:51.614Z,1955.00
2023-04-14T06:33:51.457Z,1976.00
2023-04-14T06:34:53.394Z,1996.00
2023-04-14T06:35:51.525Z,2014.00
2023-04-14T06:36:51.515Z,2006.00
2023-04-14T06:37:51.509Z,2018.00
2023-04-14T06:38:51.522Z,2026.00
2023-04-14T06:39:51.527Z,2060.00
2023-04-14T06:40:53.281Z,2064.00
2023-04-14T06:41:51.538Z,2082.00
2023-04-14T06:42:51.560Z,2112.00
2023-04-14T06:43:51.583Z,2116.00
2023-04-14T06:44:51.580Z,2128.00
2023-04-14T06:45:51.801Z,2161.00
2023-04-14T06:46:51.591Z,2241.00
2023-04-14T06:47:51.658Z,2273.00
2023-04-14T06:48:51.588Z,2266.00
2023-04-14T06:49:51.593Z,2238.00
2023-04-14T06:50:51.801Z,2256.00
2023-04-14T06:51:51.596Z,2245.00
2023-04-14T06:52:51.597Z,2213.00
2023-04-14T06:53:51.649Z,2279.00
2023-04-14T06:54:51.640Z,2273.00
2023-04-14T06:55:51.621Z,2300.00
2023-04-14T06:56:51.653Z,2297.00
2023-04-14T06:57:51.612Z,2303.00
2023-04-14T06:58:51.624Z,2293.00
2023-04-14T06:59:51.606Z,2319.00
2023-04-14T07:00:51.667Z,2333.00
2023-04-14T07:01:51.781Z,2373.00
2023-04-14T07:02:51.657Z,2371.00
2023-04-14T07:03:51.669Z,2383.00
2023-04-14T07:04:51.693Z,2383.00
2023-04-14T07:05:51.620Z,2400.00
2023-04-14T07:06:51.614Z,2415.00
2023-04-14T07:07:51.583Z,2417.00
2023-04-14T07:08:51.605Z,2433.00
2023-04-14T07:09:51.714Z,2423.00
2023-04-14T07:10:51.575Z,2448.00
2023-04-14T07:11:51.559Z,2440.00
2023-04-14T07:12:51.557Z,2455.00
2023-04-14T07:13:51.539Z,2492.00
2023-04-14T07:14:51.558Z,2488.00
2023-04-14T07:15:51.603Z,2494.00
2023-04-14T07:16:51.577Z,2518.00
2023-04-14T07:17:51.594Z,2538.00
2023-04-14T07:18:51.629Z,2543.00
2023-04-14T07:19:51.662Z,2560.00
2023-04-14T07:20:51.666Z,2584.00
2023-04-14T07:21:51.696Z,2591.00
2023-04-14T07:22:51.757Z,2610.00
2023-04-14T07:23:51.800Z,2611.00
2023-04-14T07:24:51.802Z,2621.00
2023-04-14T07:25:51.832Z,2616.00
2023-04-14T07:26:51.896Z,2664.00
2023-04-14T07:28:02.686Z,2661.00
2023-04-14T07:28:52.938Z,2663.00
2023-04-14T07:29:51.917Z,2670.00
2023-04-14T07:30:51.903Z,2692.00
2023-04-14T07:31:51.930Z,2719.00
2023-04-14T07:32:51.890Z,2751.00
2023-04-14T07:33:51.851Z,2789.00
2023-04-14T07:34:51.865Z,2804.00
2023-04-14T07:36:02.325Z,2788.00
2023-04-14T07:36:53.268Z,2788.00
2023-04-14T07:37:51.789Z,2790.00
2023-04-14T07:38:51.781Z,2807.00
2023-04-14T07:39:51.774Z,2853.00
2023-04-14T07:40:51.770Z,2903.00
2023-04-14T07:41:51.761Z,2875.00
2023-04-14T07:42:51.706Z,2859.00
2023-04-14T07:43:51.730Z,2869.00
2023-04-14T07:44:51.694Z,2867.00
2023-04-14T07:45:51.757Z,2807.00
2023-04-14T07:46:51.760Z,2766.00
2023-04-14T07:47:51.813Z,2778.00
2023-04-14T07:48:51.778Z,2509.00
2023-04-14T07:49:51.769Z,2183.00
2023-04-14T07:50:51.827Z,1911.00
2023-04-14T07:51:51.860Z,1824.00
2023-04-14T07:52:51.909Z,1768.00
2023-04-14T07:53:51.978Z,1660.00
2023-04-14T07:54:52.000Z,1598.00
2023-04-14T07:55:52.029Z,1517.00
2023-04-14T07:56:52.049Z,1439.00
2023-04-14T07:57:52.034Z,1344.00
2023-04-14T07:58:52.046Z,1289.00
2023-04-14T07:59:52.060Z,1294.00
2023-04-14T08:00:52.085Z,1370.00
2023-04-14T08:01:52.162Z,1504.00
2023-04-14T08:02:52.204Z,1522.00
2023-04-14T08:03:52.474Z,1529.00
2023-04-14T08:04:52.122Z,1523.00
2023-04-14T08:05:52.409Z,1549.00
2023-04-14T08:06:52.267Z,1557.00
2023-04-14T08:07:52.341Z,1598.00
2023-04-14T08:08:52.338Z,1602.00
2023-04-14T08:09:52.417Z,1622.00
2023-04-14T08:10:52.437Z,1642.00
2023-04-14T08:11:52.482Z,1658.00
2023-04-14T08:12:52.507Z,1675.00
2023-04-14T08:13:52.512Z,1688.00
2023-04-14T08:14:52.540Z,1692.00
2023-04-14T08:15:52.581Z,1728.00
2023-04-14T08:16:52.545Z,1730.00
2023-04-14T08:17:52.595Z,1754.00
2023-04-14T08:18:53.534Z,1781.00
2023-04-14T08:19:52.544Z,1802.00
2023-04-14T08:20:52.589Z,1815.00
2023-04-14T08:21:52.568Z,1846.00
2023-04-14T08:22:52.583Z,1860.00
2023-04-14T08:23:52.582Z,1870.00
2023-04-14T08:24:52.559Z,1903.00
2023-04-14T08:25:52.584Z,1911.00
2023-04-14T08:26:52.566Z,1933.00
2023-04-14T08:27:52.553Z,1963.00
2023-04-14T08:28:52.571Z,1897.00
2023-04-14T08:30:08.390Z,1669.00
2023-04-14T08:31:11.344Z,500.00
2023-04-14T08:32:11.323Z,500.00
2023-04-14T08:33:11.353Z,500.00
2023-04-14T08:34:11.276Z,500.00
2023-04-14T08:35:37.933Z,500.00
2023-04-14T08:36:12.333Z,500.00
2023-04-14T08:37:11.322Z,500.00
2023-04-14T08:38:11.470Z,500.00
2023-04-14T08:39:11.312Z,500.00
2023-04-14T08:40:11.365Z,500.00
2023-04-14T08:41:11.435Z,533.00
2023-04-14T08:42:11.361Z,546.00
2023-04-14T08:43:13.875Z,548.00
2023-04-14T08:44:11.364Z,548.00
2023-04-14T08:45:11.386Z,462.00
2023-04-14T08:46:11.499Z,406.00
2023-04-14T08:47:11.420Z,400.00
2023-04-14T08:48:11.454Z,400.00
2023-04-14T08:49:11.474Z,400.00
2023-04-14T08:50:11.602Z,400.00
2023-04-14T08:51:11.536Z,400.00
2023-04-14T08:52:11.592Z,400.00
2023-04-14T08:53:11.610Z,423.00
2023-04-14T08:54:11.660Z,505.00
2023-04-14T08:55:11.718Z,509.00
2023-04-14T08:56:11.720Z,506.00
2023-04-14T08:57:11.784Z,502.00
2023-04-14T08:58:11.815Z,499.00
2023-04-14T08:59:11.901Z,502.00
2023-04-14T09:00:11.873Z,508.00
2023-04-14T09:01:11.908Z,512.00
2023-04-14T09:02:12.192Z,533.00
2023-04-14T09:03:12.066Z,548.00
2023-04-14T09:04:12.133Z,555.00
2023-04-14T09:05:12.031Z,564.00
2023-04-14T09:06:12.065Z,571.00
2023-04-14T09:07:12.060Z,577.00
2023-04-14T09:08:12.091Z,585.00
2023-04-14T09:09:12.128Z,591.00
2023-04-14T09:10:12.145Z,597.00
2023-04-14T09:11:12.176Z,606.00
2023-04-14T09:12:12.477Z,618.00
2023-04-14T09:13:12.255Z,621.00
2023-04-14T09:14:12.231Z,633.00
2023-04-14T09:15:12.330Z,638.00
2023-04-14T09:16:12.314Z,641.00
2023-04-14T09:17:12.539Z,650.00
2023-04-14T09:18:12.356Z,657.00
2023-04-14T09:19:12.321Z,660.00
2023-04-14T09:20:37.999Z,681.00
2023-04-14T09:21:31.725Z,682.00
2023-04-14T09:22:13.389Z,684.00
2023-04-14T09:23:12.379Z,695.00
2023-04-14T09:24:12.457Z,712.00
2023-04-14T09:25:12.430Z,742.00
2023-04-14T09:26:12.426Z,780.00
2023-04-14T09:27:12.456Z,800.00
2023-04-14T09:28:12.442Z,801.00
2023-04-14T09:29:12.446Z,835.00
2023-04-14T09:30:12.494Z,854.00
2023-04-14T09:31:12.593Z,875.00
2023-04-14T09:32:12.521Z,879.00
2023-04-14T09:33:12.547Z,909.00
2023-04-14T09:34:12.588Z,916.00
2023-04-14T09:35:12.560Z,944.00
2023-04-14T09:36:12.609Z,984.00
2023-04-14T09:37:12.584Z,1010.00
2023-04-14T09:38:12.627Z,1032.00
2023-04-14T09:39:12.635Z,1041.00
2023-04-14T09:40:12.669Z,1075.00
2023-04-14T09:41:56.904Z,500.00
2023-04-14T09:42:56.952Z,500.00
2023-04-14T09:43:56.949Z,500.00
2023-04-14T09:44:56.951Z,500.00
2023-04-14T09:45:56.993Z,500.00
2023-04-14T09:46:57.145Z,513.00
2023-04-14T09:47:56.952Z,510.00
2023-04-14T09:48:57.062Z,507.00
2023-04-14T09:49:56.963Z,513.00
2023-04-14T09:50:56.961Z,526.00
2023-04-14T09:51:57.012Z,550.00
2023-04-14T09:52:56.986Z,563.00
2023-04-14T09:53:57.013Z,554.00
2023-04-14T09:54:56.979Z,576.00
2023-04-14T09:55:56.973Z,581.00
2023-04-14T09:56:56.981Z,587.00
2023-04-14T09:57:56.973Z,594.00
2023-04-14T09:58:56.947Z,602.00
2023-04-14T09:59:56.970Z,625.00
2023-04-14T10:00:56.977Z,626.00
2023-04-14T10:01:57.004Z,626.00
2023-04-14T10:02:57.071Z,628.00
2023-04-14T10:03:56.966Z,631.00
2023-04-14T10:04:56.990Z,646.00
2023-04-14T10:05:56.922Z,652.00
2023-04-14T10:06:56.902Z,663.00
2023-04-14T10:07:56.931Z,677.00
2023-04-14T10:08:56.962Z,697.00
2023-04-14T10:09:56.946Z,716.00
2023-04-14T10:10:56.937Z,724.00
2023-04-14T10:11:57.109Z,756.00
2023-04-14T10:12:56.934Z,807.00
2023-04-14T10:13:56.935Z,801.00
2023-04-14T10:14:56.914Z,826.00
2023-04-14T10:15:56.935Z,876.00
2023-04-14T10:16:56.891Z,890.00
2023-04-14T10:17:56.927Z,879.00
2023-04-14T10:18:56.906Z,913.00
2023-04-14T10:19:56.899Z,925.00
2023-04-14T10:20:56.901Z,934.00
2023-04-14T10:21:56.904Z,974.00
2023-04-14T10:22:56.918Z,969.00
2023-04-14T10:23:56.891Z,1000.00
2023-04-14T10:24:56.858Z,1040.00
2023-04-14T10:25:56.857Z,1052.00
2023-04-14T10:26:56.863Z,1065.00
2023-04-14T10:27:56.889Z,1077.00
2023-04-14T10:28:56.856Z,1110.00
2023-04-14T10:29:56.868Z,1145.00
2023-04-14T10:30:56.889Z,1100.00
2023-04-14T10:31:56.966Z,1133.00
2023-04-14T10:32:56.927Z,1159.00
2023-04-14T10:33:56.945Z,1167.00
2023-04-14T10:34:56.965Z,1173.00
2023-04-14T10:35:57.017Z,1220.00
2023-04-14T10:36:57.047Z,1048.00
2023-04-14T10:37:57.130Z,644.00
2023-04-14T10:38:57.161Z,617.00
2023-04-14T10:39:57.126Z,472.00
2023-04-14T10:40:57.201Z,496.00
2023-04-14T10:41:57.291Z,492.00
2023-04-14T10:42:57.435Z,504.00
2023-04-14T10:43:57.406Z,520.00
2023-04-14T10:44:57.531Z,541.00
2023-04-14T10:45:57.597Z,555.00
2023-04-14T10:46:57.746Z,545.00
2023-04-14T10:47:57.708Z,560.00
2023-04-14T10:48:57.763Z,549.00
2023-04-14T10:49:57.782Z,537.00
2023-04-14T10:50:57.856Z,538.00
2023-04-14T10:51:57.870Z,541.00
2023-04-14T10:52:57.913Z,525.00
2023-04-14T10:53:57.940Z,500.00
2023-04-14T10:54:57.948Z,508.00
2023-04-14T10:55:58.013Z,500.00
2023-04-14T10:56:58.036Z,498.00
2023-04-14T10:57:58.104Z,503.00
2023-04-14T10:58:58.358Z,501.00
2023-04-14T10:59:58.140Z,500.00
2023-04-14T11:00:58.238Z,502.00
2023-04-14T11:01:58.216Z,512.00
2023-04-14T11:02:58.359Z,500.00
2023-04-14T11:03:58.430Z,498.00
2023-04-14T11:04:58.302Z,561.00
2023-04-14T11:05:58.292Z,574.00
2023-04-14T11:06:58.391Z,550.00
2023-04-14T11:08:01.587Z,505.00
2023-04-14T11:08:58.483Z,505.00
2023-04-14T11:09:58.437Z,487.00
2023-04-14T11:10:58.469Z,465.00
2023-04-14T11:11:58.470Z,447.00
2023-04-14T11:12:58.484Z,403.00
2023-04-14T11:13:58.511Z,472.00
2023-04-14T11:14:58.538Z,500.00
2023-04-14T11:15:58.530Z,521.00
2023-04-14T11:17:03.930Z,571.00
2023-04-14T11:17:59.669Z,493.00
2023-04-14T11:18:58.647Z,509.00
2023-04-14T11:19:58.677Z,529.00
2023-04-14T11:20:58.677Z,532.00
2023-04-14T11:21:58.703Z,530.00
2023-04-14T11:22:58.693Z,528.00
2023-04-14T11:23:58.730Z,526.00
2023-04-14T11:24:58.731Z,517.00
2023-04-14T11:25:58.764Z,542.00
2023-04-14T11:26:58.821Z,551.00
2023-04-14T11:27:58.818Z,499.00
2023-04-14T11:28:59.029Z,420.00
2023-04-14T11:29:58.867Z,446.00
2023-04-14T11:30:58.894Z,501.00
2023-04-14T11:31:58.944Z,533.00
2023-04-14T11:32:59.158Z,547.00
2023-04-14T11:33:59.112Z,554.00
2023-04-14T11:34:59.182Z,588.00
2023-04-14T11:35:59.231Z,610.00
2023-04-14T11:36:59.323Z,628.00
2023-04-14T11:37:59.437Z,627.00
2023-04-14T11:38:59.657Z,619.00
2023-04-14T11:39:59.632Z,607.00
2023-04-14T11:40:59.658Z,558.00
2023-04-14T11:41:59.765Z,575.00
2023-04-14T11:42:59.826Z,574.00
2023-04-14T11:43:59.887Z,562.00
2023-04-14T11:44:59.981Z,570.00
2023-04-14T11:46:00.085Z,627.00
2023-04-14T11:47:00.105Z,635.00
2023-04-14T11:48:00.387Z,611.00
2023-04-14T11:49:00.392Z,557.00
2023-04-14T11:50:00.353Z,554.00
2023-04-14T11:51:00.424Z,556.00
2023-04-14T11:52:00.486Z,568.00
2023-04-14T11:53:00.627Z,527.00
2023-04-14T11:54:00.708Z,503.00
2023-04-14T11:55:00.759Z,511.00
2023-04-14T11:56:00.961Z,914.00
2023-04-14T11:57:00.936Z,1309.00
2023-04-14T11:58:01.038Z,1181.00
2023-04-14T11:59:01.447Z,1013.00
2023-04-14T12:00:01.221Z,918.00
2023-04-14T12:01:01.308Z,859.00
2023-04-14T12:02:01.382Z,762.00
2023-04-14T12:03:01.556Z,568.00
2023-04-14T12:04:01.636Z,517.00
2023-04-14T12:05:01.730Z,502.00
2023-04-14T12:06:01.823Z,511.00
2023-04-14T12:07:01.650Z,522.00
2023-04-14T12:08:01.720Z,500.00
2023-04-14T12:09:02.056Z,513.00
2023-04-14T12:10:01.852Z,559.00
2023-04-14T12:11:01.839Z,561.00
2023-04-14T12:12:01.930Z,539.00
2023-04-14T12:13:01.968Z,507.00
2023-04-14T12:14:02.039Z,500.00
2023-04-14T12:15:02.121Z,509.00
2023-04-14T12:16:02.196Z,500.00
2023-04-14T12:17:02.258Z,495.00
2023-04-14T12:18:02.337Z,500.00
2023-04-14T12:19:02.455Z,499.00
2023-04-14T12:20:02.429Z,495.00
2023-04-14T12:21:02.525Z,502.00
2023-04-14T12:22:02.569Z,499.00
2023-04-14T12:23:02.682Z,497.00
2023-04-14T12:24:02.733Z,500.00
2023-04-14T12:25:02.785Z,505.00